• Join FlightAware (Why Join?)
  • Login
  • US Flag 
07:05AM EDT


 

Airport Tracker/Info


-or-


 

Live Flight TrackerFlight Track Log ✈ CTL312 ✈ 13-May-2013 ✈ KBKL - KHAO

Flight Track Log - Related Links

Times and Time Zones

All times are in EDT time to prevent confusion due to time zone crossing. See the CTL312 flight status page for this flight to view local times or setup timezone preferences in your user account.

Time Position Orientation Groundspeed Altitude Reporting Facility
EDT Latitude Longitude Course Direction KTS MPH feet Rate Location/Type
06:40PM 41.5294 -81.6842 342° North 128 147 1,100  Level Cleveland Center
06:41PM 41.5772 -81.7044 342° North 140 161 2,700 1,200 Climbing Cleveland Center
06:42PM 41.6039 -81.7356 319° Northwest 137 158 4,000 1,200 Climbing Cleveland Center
06:43PM 41.6181 -81.7775 294° West 127 146 5,100 1,020 Climbing Cleveland Center
06:44PM 41.6219 -81.8219 277° West 138 159 6,000 360 Climbing Cleveland Center
06:45PM 41.6064 -81.8883 253° West 173 199 5,900  Descending Cleveland Center
06:46PM 41.5725 -81.9319 224° Southwest 169 194 6,000  Climbing Cleveland Center
06:47PM 41.5389 -81.9731 222° Southwest 167 192 6,000  Level Cleveland Center
06:48PM 41.5050 -82.0111 220° Southwest 164 189 6,000  Level Cleveland Center
06:49PM 41.4733 -82.0464 220° Southwest 162 186 6,100  Climbing Cleveland Center
06:50PM 41.4478 -82.0764 221° Southwest 163 188 6,100  Level Cleveland Center
06:51PM 41.4117 -82.1225 224° Southwest 164 189 6,100 -60 Level Cleveland Center
06:53PM 41.3625 -82.1825 223° Southwest  Level Estimated
07:00PM 41.1329 -82.4614 222° Southwest  Level Estimated
07:01PM 41.1001 -82.5011 222° Southwest  Level Estimated
07:02PM 41.0672 -82.5407 222° Southwest  Level Estimated
07:03PM 41.0343 -82.5803 222° Southwest  Level Estimated
07:04PM 41.0014 -82.6199 222° Southwest  Level Estimated
07:05PM 40.9685 -82.6594 222° Southwest  Level Estimated
07:06PM 40.9356 -82.6989 222° Southwest  Level Estimated
07:07PM 40.9026 -82.7383 222° Southwest  Level Estimated
07:08PM 40.8697 -82.7777 222° Southwest  Level Estimated
07:09PM 40.8367 -82.8170 222° Southwest  Level Estimated
07:10PM 40.8037 -82.8564 222° Southwest  Level Estimated
07:10PM 40.7947 -82.8967 222° Southwest 167 192 6,000  Level Indianapolis Center
07:11PM 40.7707 -82.8957 222° Southwest  Level Estimated
07:11PM 40.7536 -82.9472 223° Southwest 170 196 6,000  Level Indianapolis Center
07:12PM 40.7377 -82.9349 222° Southwest  Level Estimated
07:12PM 40.7178 -82.9903 222° Southwest 172 198 6,100  Level Indianapolis Center
07:13PM 40.7047 -82.9741 222° Southwest  Level Estimated
07:13PM 40.6822 -83.0342 223° Southwest 173 199 6,000  Level Indianapolis Center
07:14PM 40.6717 -83.0133 222° Southwest  Level Estimated
07:14PM 40.6456 -83.0733 219° Southwest 170 196 6,000  Level Indianapolis Center
07:15PM 40.6386 -83.0524 222° Southwest  Level Estimated
07:15PM 40.6100 -83.1136 221° Southwest 168 193 6,000  Level Indianapolis Center
07:16PM 40.5728 -83.1606 224° Southwest 172 198 6,000  Level Indianapolis Center
07:17PM 40.5361 -83.2031 221° Southwest 174 200 6,100  Climbing Indianapolis Center
07:18PM 40.5000 -83.2447 221° Southwest 172 198 6,000  Descending Indianapolis Center
07:19PM 40.4639 -83.2856 221° Southwest 171 197 6,100  Climbing Indianapolis Center
07:20PM 40.4278 -83.3286 222° Southwest 174 200 6,100 -60 Level Indianapolis Center
07:21PM 40.3936 -83.3711 223° Southwest 172 198 6,000 -60 Descending Indianapolis Center
07:22PM 40.3550 -83.4131 220° Southwest 170 196 6,000  Level Indianapolis Center
07:23PM 40.3206 -83.4553 223° Southwest 169 194 6,000  Level Indianapolis Center
07:23PM 40.3142 -83.4606 212° Southwest 171 197 6,000  Level Indianapolis Center
07:24PM 40.2842 -83.4944 221° Southwest 167 192 6,000 60 Level Indianapolis Center
07:24PM 40.2783 -83.5000 216° Southwest 169 194 6,100  Climbing Indianapolis Center
07:25PM 40.2497 -83.5367 224° Southwest 168 193 6,000 -120 Descending Indianapolis Center
07:25PM 40.2431 -83.5422 212° Southwest 169 194 6,000  Level Indianapolis Center
07:26PM 40.2133 -83.5761 221° Southwest 173 199 6,000 60 Level Indianapolis Center
07:26PM 40.2078 -83.5833 225° Southwest 170 196 6,100  Climbing Indianapolis Center
07:27PM 40.1789 -83.6181 223° Southwest 169 194 6,000 -120 Descending Indianapolis Center
07:27PM 40.1711 -83.6253 215° Southwest 171 197 6,000  Level Indianapolis Center
07:28PM 40.1400 -83.6625 222° Southwest 174 200 6,000  Level Indianapolis Center
07:28PM 40.1294 -83.6739 220° Southwest 172 198 6,000  Level Indianapolis Center
07:29PM 40.1036 -83.7014 219° Southwest 171 197 6,000  Level Indianapolis Center
07:29PM 40.0936 -83.7150 226° Southwest 171 197 6,000 60 Level Indianapolis Center
07:30PM 40.0689 -83.7436 222° Southwest 170 196 6,100  Climbing Indianapolis Center
07:30PM 40.0572 -83.7550 217° Southwest 170 196 6,000 -120 Descending Indianapolis Center
07:31PM 40.0325 -83.7853 223° Southwest 170 196 6,000  Level Indianapolis Center
07:31PM 40.0217 -83.7972 220° Southwest 171 197 6,000  Level Indianapolis Center
07:32PM 39.9981 -83.8244 221° Southwest 172 198 6,000  Level Indianapolis Center
07:32PM 39.9850 -83.8381 219° Southwest 172 198 6,000  Level Indianapolis Center
07:33PM 39.9592 -83.8683 222° Southwest 171 197 6,000 60 Level Indianapolis Center
07:33PM 39.9486 -83.8792 218° Southwest 172 198 6,100  Climbing Indianapolis Center
07:34PM 39.9225 -83.9100 222° Southwest 172 198 6,000  Descending Indianapolis Center
07:34PM 39.9133 -83.9211 223° Southwest 171 197 6,100 60 Climbing Indianapolis Center
07:35PM 39.8856 -83.9517 220° Southwest 174 200 6,100 -120 Level Indianapolis Center
07:36PM 39.8722 -83.9703 227° Southwest 172 198 6,000 -120 Descending Indianapolis Center
07:36PM 39.8511 -83.9933 220° Southwest 169 194 6,000 -420 Level Indianapolis Center
07:37PM 39.8347 -84.0125 222° Southwest 173 199 5,600 -840 Descending Indianapolis Center
07:37PM 39.8119 -84.0397 223° Southwest 196 226 5,200 -720 Descending Indianapolis Center
07:38PM 39.7950 -84.0589 221° Southwest 182 209 4,900 -720 Descending Indianapolis Center
07:38PM 39.7706 -84.0861 221° Southwest 187 215 4,500 -600 Descending Indianapolis Center
07:39PM 39.7550 -84.1044 222° Southwest 187 215 4,300 -420 Descending Indianapolis Center
07:39PM 39.7339 -84.1275 220° Southwest 183 211 4,100 -240 Descending Indianapolis Center
07:40PM 39.7169 -84.1481 223° Southwest 185 213 4,100 -120 Level Indianapolis Center
07:40PM 39.6944 -84.1739 221° Southwest 173 199 4,000 -120 Descending Indianapolis Center
07:41PM 39.6806 -84.1883 219° Southwest 178 205 4,000 60 Level Indianapolis Center
07:41PM 39.6581 -84.2097 216° Southwest 165 190 4,100 60 Climbing Indianapolis Center
07:42PM 39.6422 -84.2242 215° Southwest 171 197 4,100 -120 Level Indianapolis Center
07:43PM 39.6031 -84.2619 217° Southwest 172 198 4,000 -300 Descending Indianapolis Center
07:44PM 39.5578 -84.3053 216° Southwest 172 198 3,600 -360 Descending Indianapolis Center
07:45PM 39.5164 -84.3428 215° Southwest 176 203 3,300 -180 Descending Indianapolis Center
07:46PM 39.4775 -84.3758 213° Southwest 176 203 3,300  Level Indianapolis Center
07:48PM 39.4182 -84.4318 218° Southwest  Level FlightAware Approximate
07:55PM 39.3500 -84.5167 229° Southwest  Level FlightAware Approximate
07:56PM 39.3638 -84.5219 229° Southwest  Level Estimated